sensor_id;sensor_type;location;lat;lon;timestamp;P1;durP1;ratioP1;P2;durP2;ratioP2
19691;SDS011;42748;50.016;19.890;2024-03-22T00:00:32;94.93;;;42.15;;
19691;SDS011;42748;50.016;19.890;2024-03-22T00:02:58;91.93;;;43.13;;
19691;SDS011;42748;50.016;19.890;2024-03-22T00:05:25;92.07;;;43.05;;
19691;SDS011;42748;50.016;19.890;2024-03-22T00:07:51;95.72;;;42.28;;
19691;SDS011;42748;50.016;19.890;2024-03-22T00:10:18;95.88;;;42.90;;
19691;SDS011;42748;50.016;19.890;2024-03-22T00:12:44;95.78;;;43.42;;
19691;SDS011;42748;50.016;19.890;2024-03-22T00:15:11;98.50;;;43.60;;
19691;SDS011;42748;50.016;19.890;2024-03-22T00:17:37;99.05;;;42.97;;
19691;SDS011;42748;50.016;19.890;2024-03-22T00:20:03;102.45;;;44.38;;
19691;SDS011;42748;50.016;19.890;2024-03-22T00:22:30;103.68;;;43.63;;
19691;SDS011;42748;50.016;19.890;2024-03-22T00:24:56;100.95;;;44.45;;
19691;SDS011;42748;50.016;19.890;2024-03-22T00:27:23;99.68;;;44.22;;
19691;SDS011;42748;50.016;19.890;2024-03-22T00:29:49;99.72;;;44.40;;
19691;SDS011;42748;50.016;19.890;2024-03-22T00:32:16;101.22;;;44.80;;
19691;SDS011;42748;50.016;19.890;2024-03-22T00:34:42;99.88;;;45.15;;
19691;SDS011;42748;50.016;19.890;2024-03-22T00:37:09;103.97;;;47.17;;
19691;SDS011;42748;50.016;19.890;2024-03-22T00:43:44;106.97;;;46.65;;
19691;SDS011;42748;50.016;19.890;2024-03-22T00:46:10;105.97;;;47.92;;
19691;SDS011;42748;50.016;19.890;2024-03-22T00:48:37;107.88;;;47.53;;
19691;SDS011;42748;50.016;19.890;2024-03-22T00:51:03;104.53;;;47.45;;
19691;SDS011;42748;50.016;19.890;2024-03-22T00:53:30;103.40;;;47.92;;
19691;SDS011;42748;50.016;19.890;2024-03-22T00:55:56;101.70;;;48.25;;
19691;SDS011;42748;50.016;19.890;2024-03-22T00:58:27;110.32;;;49.58;;
19691;SDS011;42748;50.016;19.890;2024-03-22T01:00:54;106.25;;;49.28;;
19691;SDS011;42748;50.016;19.890;2024-03-22T01:03:21;111.57;;;51.17;;
19691;SDS011;42748;50.016;19.890;2024-03-22T01:05:48;116.30;;;50.75;;
19691;SDS011;42748;50.016;19.890;2024-03-22T01:08:14;120.25;;;51.95;;
19691;SDS011;42748;50.016;19.890;2024-03-22T01:10:41;128.43;;;55.75;;
19691;SDS011;42748;50.016;19.890;2024-03-22T01:13:07;128.25;;;56.45;;
19691;SDS011;42748;50.016;19.890;2024-03-22T01:15:34;136.63;;;57.30;;
19691;SDS011;42748;50.016;19.890;2024-03-22T01:18:01;132.40;;;57.97;;
19691;SDS011;42748;50.016;19.890;2024-03-22T01:20:27;134.13;;;57.50;;
19691;SDS011;42748;50.016;19.890;2024-03-22T01:22:54;140.85;;;58.60;;
19691;SDS011;42748;50.016;19.890;2024-03-22T01:25:21;138.75;;;58.78;;
19691;SDS011;42748;50.016;19.890;2024-03-22T01:27:47;136.43;;;58.42;;
19691;SDS011;42748;50.016;19.890;2024-03-22T01:30:14;131.02;;;57.13;;
19691;SDS011;42748;50.016;19.890;2024-03-22T01:32:40;126.70;;;56.10;;
19691;SDS011;42748;50.016;19.890;2024-03-22T01:35:07;128.23;;;55.97;;
19691;SDS011;42748;50.016;19.890;2024-03-22T01:37:35;127.32;;;56.88;;
19691;SDS011;42748;50.016;19.890;2024-03-22T01:44:26;128.85;;;54.95;;
19691;SDS011;42748;50.016;19.890;2024-03-22T01:46:53;133.20;;;58.33;;
19691;SDS011;42748;50.016;19.890;2024-03-22T01:49:19;125.55;;;57.83;;
19691;SDS011;42748;50.016;19.890;2024-03-22T01:51:46;130.75;;;58.63;;
19691;SDS011;42748;50.016;19.890;2024-03-22T01:54:13;130.35;;;59.03;;
19691;SDS011;42748;50.016;19.890;2024-03-22T01:56:40;127.30;;;58.90;;
19691;SDS011;42748;50.016;19.890;2024-03-22T01:59:07;128.50;;;58.60;;
19691;SDS011;42748;50.016;19.890;2024-03-22T02:01:34;128.82;;;56.40;;
19691;SDS011;42748;50.016;19.890;2024-03-22T02:04:01;121.90;;;54.80;;
19691;SDS011;42748;50.016;19.890;2024-03-22T02:06:28;130.15;;;55.85;;
19691;SDS011;42748;50.016;19.890;2024-03-22T02:08:54;110.07;;;52.67;;
19691;SDS011;42748;50.016;19.890;2024-03-22T02:11:21;117.32;;;53.75;;
19691;SDS011;42748;50.016;19.890;2024-03-22T02:13:48;115.82;;;53.30;;
19691;SDS011;42748;50.016;19.890;2024-03-22T02:16:14;111.55;;;52.15;;
19691;SDS011;42748;50.016;19.890;2024-03-22T02:18:41;109.05;;;50.90;;
19691;SDS011;42748;50.016;19.890;2024-03-22T02:21:07;109.43;;;51.63;;
19691;SDS011;42748;50.016;19.890;2024-03-22T02:23:34;103.63;;;50.20;;
19691;SDS011;42748;50.016;19.890;2024-03-22T02:26:01;108.80;;;51.53;;
19691;SDS011;42748;50.016;19.890;2024-03-22T02:28:28;113.35;;;51.88;;
19691;SDS011;42748;50.016;19.890;2024-03-22T02:30:55;102.78;;;50.05;;
19691;SDS011;42748;50.016;19.890;2024-03-22T02:33:22;104.82;;;49.58;;
19691;SDS011;42748;50.016;19.890;2024-03-22T02:35:49;104.38;;;51.80;;
19691;SDS011;42748;50.016;19.890;2024-03-22T02:38:16;100.80;;;49.85;;
19691;SDS011;42748;50.016;19.890;2024-03-22T02:45:23;101.25;;;46.65;;
19691;SDS011;42748;50.016;19.890;2024-03-22T02:47:49;96.18;;;45.83;;
19691;SDS011;42748;50.016;19.890;2024-03-22T02:50:16;94.72;;;44.80;;
19691;SDS011;42748;50.016;19.890;2024-03-22T02:52:42;92.90;;;44.88;;
19691;SDS011;42748;50.016;19.890;2024-03-22T02:55:09;90.95;;;43.17;;
19691;SDS011;42748;50.016;19.890;2024-03-22T02:57:35;93.40;;;44.08;;
19691;SDS011;42748;50.016;19.890;2024-03-22T03:00:02;92.38;;;44.78;;
19691;SDS011;42748;50.016;19.890;2024-03-22T03:02:29;88.85;;;43.95;;
19691;SDS011;42748;50.016;19.890;2024-03-22T03:04:55;94.45;;;44.75;;
19691;SDS011;42748;50.016;19.890;2024-03-22T03:07:23;83.60;;;44.70;;
19691;SDS011;42748;50.016;19.890;2024-03-22T03:09:50;95.32;;;45.00;;
19691;SDS011;42748;50.016;19.890;2024-03-22T03:12:16;83.97;;;43.88;;
19691;SDS011;42748;50.016;19.890;2024-03-22T03:14:43;93.15;;;46.47;;
19691;SDS011;42748;50.016;19.890;2024-03-22T03:17:09;90.15;;;43.95;;
19691;SDS011;42748;50.016;19.890;2024-03-22T03:19:36;90.72;;;44.83;;
19691;SDS011;42748;50.016;19.890;2024-03-22T03:22:02;89.72;;;43.17;;
19691;SDS011;42748;50.016;19.890;2024-03-22T03:24:29;87.25;;;45.05;;
19691;SDS011;42748;50.016;19.890;2024-03-22T03:26:55;92.07;;;46.00;;
19691;SDS011;42748;50.016;19.890;2024-03-22T03:29:22;87.15;;;44.45;;
19691;SDS011;42748;50.016;19.890;2024-03-22T03:31:48;94.03;;;44.67;;
19691;SDS011;42748;50.016;19.890;2024-03-22T03:34:15;93.72;;;44.22;;
19691;SDS011;42748;50.016;19.890;2024-03-22T03:36:41;90.68;;;44.42;;
19691;SDS011;42748;50.016;19.890;2024-03-22T03:39:08;85.43;;;43.50;;
19691;SDS011;42748;50.016;19.890;2024-03-22T03:41:35;91.97;;;44.40;;
19691;SDS011;42748;50.016;19.890;2024-03-22T03:44:01;85.80;;;43.28;;
19691;SDS011;42748;50.016;19.890;2024-03-22T03:46:28;87.05;;;43.33;;
19691;SDS011;42748;50.016;19.890;2024-03-22T03:48:54;86.38;;;43.15;;
19691;SDS011;42748;50.016;19.890;2024-03-22T03:51:21;88.28;;;44.67;;
19691;SDS011;42748;50.016;19.890;2024-03-22T03:53:47;95.00;;;45.15;;
19691;SDS011;42748;50.016;19.890;2024-03-22T04:00:35;92.88;;;44.78;;
19691;SDS011;42748;50.016;19.890;2024-03-22T04:03:01;97.88;;;46.03;;
19691;SDS011;42748;50.016;19.890;2024-03-22T04:05:28;94.65;;;46.17;;
19691;SDS011;42748;50.016;19.890;2024-03-22T04:07:54;91.40;;;44.88;;
19691;SDS011;42748;50.016;19.890;2024-03-22T04:10:21;96.80;;;45.83;;
19691;SDS011;42748;50.016;19.890;2024-03-22T04:12:48;89.43;;;45.05;;
19691;SDS011;42748;50.016;19.890;2024-03-22T04:15:14;91.43;;;45.25;;
19691;SDS011;42748;50.016;19.890;2024-03-22T04:17:41;87.45;;;44.88;;
19691;SDS011;42748;50.016;19.890;2024-03-22T04:20:07;91.90;;;45.58;;
19691;SDS011;42748;50.016;19.890;2024-03-22T04:22:34;98.45;;;46.10;;
19691;SDS011;42748;50.016;19.890;2024-03-22T04:25:00;93.95;;;47.15;;
19691;SDS011;42748;50.016;19.890;2024-03-22T04:27:27;87.32;;;45.20;;
19691;SDS011;42748;50.016;19.890;2024-03-22T04:29:53;89.00;;;45.65;;
19691;SDS011;42748;50.016;19.890;2024-03-22T04:32:20;89.25;;;46.03;;
19691;SDS011;42748;50.016;19.890;2024-03-22T04:34:46;94.18;;;46.85;;
19691;SDS011;42748;50.016;19.890;2024-03-22T04:37:13;92.93;;;45.03;;
19691;SDS011;42748;50.016;19.890;2024-03-22T04:39:40;86.13;;;44.95;;
19691;SDS011;42748;50.016;19.890;2024-03-22T04:42:06;94.03;;;44.40;;
19691;SDS011;42748;50.016;19.890;2024-03-22T04:44:33;94.10;;;45.30;;
19691;SDS011;42748;50.016;19.890;2024-03-22T04:46:59;83.68;;;43.75;;
19691;SDS011;42748;50.016;19.890;2024-03-22T04:49:26;88.30;;;44.35;;
19691;SDS011;42748;50.016;19.890;2024-03-22T04:51:52;85.88;;;44.13;;
19691;SDS011;42748;50.016;19.890;2024-03-22T04:54:18;88.05;;;44.85;;
19691;SDS011;42748;50.016;19.890;2024-03-22T05:01:04;88.25;;;43.35;;
19691;SDS011;42748;50.016;19.890;2024-03-22T05:03:30;88.43;;;43.60;;
19691;SDS011;42748;50.016;19.890;2024-03-22T05:05:57;86.03;;;44.42;;
19691;SDS011;42748;50.016;19.890;2024-03-22T05:08:24;84.95;;;42.28;;
19691;SDS011;42748;50.016;19.890;2024-03-22T05:10:50;85.25;;;43.72;;
19691;SDS011;42748;50.016;19.890;2024-03-22T05:13:17;84.93;;;44.42;;
19691;SDS011;42748;50.016;19.890;2024-03-22T05:15:43;78.93;;;43.40;;
19691;SDS011;42748;50.016;19.890;2024-03-22T05:18:10;78.65;;;43.38;;
19691;SDS011;42748;50.016;19.890;2024-03-22T05:20:36;83.72;;;43.88;;
19691;SDS011;42748;50.016;19.890;2024-03-22T05:23:03;82.93;;;43.70;;
19691;SDS011;42748;50.016;19.890;2024-03-22T05:25:29;84.03;;;43.15;;
19691;SDS011;42748;50.016;19.890;2024-03-22T05:27:56;82.40;;;42.97;;
19691;SDS011;42748;50.016;19.890;2024-03-22T05:30:22;78.45;;;41.20;;
19691;SDS011;42748;50.016;19.890;2024-03-22T05:32:49;81.32;;;41.42;;
19691;SDS011;42748;50.016;19.890;2024-03-22T05:35:15;78.28;;;39.60;;
19691;SDS011;42748;50.016;19.890;2024-03-22T05:37:43;75.45;;;38.08;;
19691;SDS011;42748;50.016;19.890;2024-03-22T05:40:10;75.85;;;40.13;;
19691;SDS011;42748;50.016;19.890;2024-03-22T05:42:37;69.78;;;36.58;;
19691;SDS011;42748;50.016;19.890;2024-03-22T05:45:03;67.68;;;37.60;;
19691;SDS011;42748;50.016;19.890;2024-03-22T05:47:30;70.80;;;36.10;;
19691;SDS011;42748;50.016;19.890;2024-03-22T05:49:57;68.32;;;34.67;;
19691;SDS011;42748;50.016;19.890;2024-03-22T05:52:23;69.13;;;35.53;;
19691;SDS011;42748;50.016;19.890;2024-03-22T05:54:50;71.00;;;36.17;;
19691;SDS011;42748;50.016;19.890;2024-03-22T06:01:35;69.72;;;35.00;;
19691;SDS011;42748;50.016;19.890;2024-03-22T06:04:01;66.97;;;35.50;;
19691;SDS011;42748;50.016;19.890;2024-03-22T06:06:28;64.00;;;34.67;;
19691;SDS011;42748;50.016;19.890;2024-03-22T06:08:54;61.17;;;33.35;;
19691;SDS011;42748;50.016;19.890;2024-03-22T06:11:22;68.95;;;34.47;;
19691;SDS011;42748;50.016;19.890;2024-03-22T06:13:49;68.60;;;34.75;;
19691;SDS011;42748;50.016;19.890;2024-03-22T06:16:16;66.78;;;34.63;;
19691;SDS011;42748;50.016;19.890;2024-03-22T06:18:43;66.55;;;36.05;;
19691;SDS011;42748;50.016;19.890;2024-03-22T06:21:09;65.03;;;34.33;;
19691;SDS011;42748;50.016;19.890;2024-03-22T06:23:35;67.65;;;35.13;;
19691;SDS011;42748;50.016;19.890;2024-03-22T06:26:02;61.80;;;34.03;;
19691;SDS011;42748;50.016;19.890;2024-03-22T06:28:29;65.57;;;34.20;;
19691;SDS011;42748;50.016;19.890;2024-03-22T06:30:55;63.05;;;34.22;;
19691;SDS011;42748;50.016;19.890;2024-03-22T06:33:22;62.17;;;33.67;;
19691;SDS011;42748;50.016;19.890;2024-03-22T06:35:49;59.65;;;33.15;;
19691;SDS011;42748;50.016;19.890;2024-03-22T06:38:16;60.60;;;33.33;;
19691;SDS011;42748;50.016;19.890;2024-03-22T06:40:42;62.22;;;34.53;;
19691;SDS011;42748;50.016;19.890;2024-03-22T06:43:09;62.75;;;34.17;;
19691;SDS011;42748;50.016;19.890;2024-03-22T06:45:35;61.38;;;33.13;;
19691;SDS011;42748;50.016;19.890;2024-03-22T06:48:02;62.65;;;33.13;;
19691;SDS011;42748;50.016;19.890;2024-03-22T06:50:28;58.97;;;32.65;;
19691;SDS011;42748;50.016;19.890;2024-03-22T06:52:54;57.00;;;31.55;;
19691;SDS011;42748;50.016;19.890;2024-03-22T06:55:21;63.60;;;33.75;;
19691;SDS011;42748;50.016;19.890;2024-03-22T07:02:07;58.85;;;30.73;;
19691;SDS011;42748;50.016;19.890;2024-03-22T07:04:35;55.85;;;29.92;;
19691;SDS011;42748;50.016;19.890;2024-03-22T07:07:02;62.22;;;32.80;;
19691;SDS011;42748;50.016;19.890;2024-03-22T07:09:28;62.88;;;32.70;;
19691;SDS011;42748;50.016;19.890;2024-03-22T07:11:56;59.50;;;32.00;;
19691;SDS011;42748;50.016;19.890;2024-03-22T07:14:22;62.00;;;33.55;;
19691;SDS011;42748;50.016;19.890;2024-03-22T07:16:52;59.72;;;31.92;;
19691;SDS011;42748;50.016;19.890;2024-03-22T07:19:21;59.80;;;32.50;;
19691;SDS011;42748;50.016;19.890;2024-03-22T07:21:48;60.38;;;32.10;;
19691;SDS011;42748;50.016;19.890;2024-03-22T07:24:14;60.05;;;32.22;;
19691;SDS011;42748;50.016;19.890;2024-03-22T07:26:41;56.53;;;31.58;;
19691;SDS011;42748;50.016;19.890;2024-03-22T07:29:07;59.30;;;32.95;;
19691;SDS011;42748;50.016;19.890;2024-03-22T07:31:34;66.10;;;32.75;;
19691;SDS011;42748;50.016;19.890;2024-03-22T07:34:00;60.00;;;32.45;;
19691;SDS011;42748;50.016;19.890;2024-03-22T07:36:27;56.38;;;30.92;;
19691;SDS011;42748;50.016;19.890;2024-03-22T07:38:53;57.53;;;31.77;;
19691;SDS011;42748;50.016;19.890;2024-03-22T07:41:21;61.35;;;32.78;;
19691;SDS011;42748;50.016;19.890;2024-03-22T07:43:48;58.17;;;31.48;;
19691;SDS011;42748;50.016;19.890;2024-03-22T07:46:14;58.25;;;31.48;;
19691;SDS011;42748;50.016;19.890;2024-03-22T07:48:41;60.28;;;30.83;;
19691;SDS011;42748;50.016;19.890;2024-03-22T07:51:07;55.92;;;30.67;;
19691;SDS011;42748;50.016;19.890;2024-03-22T07:53:33;59.20;;;30.58;;
19691;SDS011;42748;50.016;19.890;2024-03-22T07:56:00;63.83;;;32.42;;
19691;SDS011;42748;50.016;19.890;2024-03-22T08:02:45;60.58;;;31.45;;
19691;SDS011;42748;50.016;19.890;2024-03-22T08:05:11;58.42;;;30.38;;
19691;SDS011;42748;50.016;19.890;2024-03-22T08:07:38;65.03;;;32.97;;
19691;SDS011;42748;50.016;19.890;2024-03-22T08:10:04;61.45;;;33.92;;
19691;SDS011;42748;50.016;19.890;2024-03-22T08:12:31;63.47;;;33.13;;
19691;SDS011;42748;50.016;19.890;2024-03-22T08:14:57;62.72;;;32.45;;
19691;SDS011;42748;50.016;19.890;2024-03-22T08:17:24;62.33;;;33.22;;
19691;SDS011;42748;50.016;19.890;2024-03-22T08:19:50;62.72;;;32.22;;
19691;SDS011;42748;50.016;19.890;2024-03-22T08:22:17;59.08;;;31.85;;
19691;SDS011;42748;50.016;19.890;2024-03-22T08:24:43;60.33;;;32.67;;
19691;SDS011;42748;50.016;19.890;2024-03-22T08:27:10;56.45;;;31.05;;
19691;SDS011;42748;50.016;19.890;2024-03-22T08:29:37;57.58;;;31.77;;
19691;SDS011;42748;50.016;19.890;2024-03-22T08:32:06;59.03;;;32.20;;
19691;SDS011;42748;50.016;19.890;2024-03-22T08:34:33;59.45;;;31.83;;
19691;SDS011;42748;50.016;19.890;2024-03-22T08:36:59;57.35;;;30.35;;
19691;SDS011;42748;50.016;19.890;2024-03-22T08:39:26;58.05;;;30.17;;
19691;SDS011;42748;50.016;19.890;2024-03-22T08:41:52;58.80;;;31.35;;
19691;SDS011;42748;50.016;19.890;2024-03-22T08:44:20;56.50;;;31.55;;
19691;SDS011;42748;50.016;19.890;2024-03-22T08:46:47;59.13;;;31.17;;
19691;SDS011;42748;50.016;19.890;2024-03-22T08:49:15;61.88;;;30.30;;
19691;SDS011;42748;50.016;19.890;2024-03-22T08:51:44;55.50;;;30.55;;
19691;SDS011;42748;50.016;19.890;2024-03-22T08:54:11;58.22;;;30.60;;
19691;SDS011;42748;50.016;19.890;2024-03-22T08:56:38;55.65;;;28.52;;
19691;SDS011;42748;50.016;19.890;2024-03-22T09:03:26;41.97;;;22.15;;
19691;SDS011;42748;50.016;19.890;2024-03-22T09:05:53;45.47;;;22.60;;
19691;SDS011;42748;50.016;19.890;2024-03-22T09:08:20;41.05;;;22.60;;
19691;SDS011;42748;50.016;19.890;2024-03-22T09:10:48;41.55;;;21.85;;
19691;SDS011;42748;50.016;19.890;2024-03-22T09:13:14;43.67;;;21.95;;
19691;SDS011;42748;50.016;19.890;2024-03-22T09:15:41;42.83;;;21.90;;
19691;SDS011;42748;50.016;19.890;2024-03-22T09:18:07;44.63;;;20.83;;
19691;SDS011;42748;50.016;19.890;2024-03-22T09:20:34;42.83;;;20.63;;
19691;SDS011;42748;50.016;19.890;2024-03-22T09:23:00;37.50;;;19.33;;
19691;SDS011;42748;50.016;19.890;2024-03-22T09:25:27;36.38;;;18.90;;
19691;SDS011;42748;50.016;19.890;2024-03-22T09:27:53;37.67;;;19.25;;
19691;SDS011;42748;50.016;19.890;2024-03-22T09:30:20;32.75;;;17.73;;
19691;SDS011;42748;50.016;19.890;2024-03-22T09:32:47;34.28;;;18.92;;
19691;SDS011;42748;50.016;19.890;2024-03-22T09:35:13;37.95;;;18.92;;
19691;SDS011;42748;50.016;19.890;2024-03-22T09:37:40;35.50;;;19.27;;
19691;SDS011;42748;50.016;19.890;2024-03-22T09:40:07;35.85;;;18.05;;
19691;SDS011;42748;50.016;19.890;2024-03-22T09:42:33;38.13;;;18.75;;
19691;SDS011;42748;50.016;19.890;2024-03-22T09:45:09;34.03;;;19.42;;
19691;SDS011;42748;50.016;19.890;2024-03-22T09:47:37;35.10;;;18.27;;
19691;SDS011;42748;50.016;19.890;2024-03-22T09:50:06;37.15;;;18.15;;
19691;SDS011;42748;50.016;19.890;2024-03-22T09:52:34;35.80;;;18.38;;
19691;SDS011;42748;50.016;19.890;2024-03-22T09:55:01;35.10;;;18.27;;
19691;SDS011;42748;50.016;19.890;2024-03-22T09:57:29;39.17;;;18.45;;
19691;SDS011;42748;50.016;19.890;2024-03-22T09:59:55;30.15;;;16.00;;
19691;SDS011;42748;50.016;19.890;2024-03-22T10:02:22;30.02;;;14.93;;
19691;SDS011;42748;50.016;19.890;2024-03-22T10:04:51;28.77;;;15.32;;
19691;SDS011;42748;50.016;19.890;2024-03-22T10:07:18;30.63;;;14.57;;
19691;SDS011;42748;50.016;19.890;2024-03-22T10:09:44;29.55;;;14.27;;
19691;SDS011;42748;50.016;19.890;2024-03-22T10:12:11;28.33;;;13.27;;
19691;SDS011;42748;50.016;19.890;2024-03-22T10:18:43;30.77;;;14.07;;
19691;SDS011;42748;50.016;19.890;2024-03-22T10:21:10;27.45;;;13.55;;
19691;SDS011;42748;50.016;19.890;2024-03-22T10:23:36;28.00;;;13.90;;
19691;SDS011;42748;50.016;19.890;2024-03-22T10:26:03;24.45;;;12.48;;
19691;SDS011;42748;50.016;19.890;2024-03-22T10:28:30;29.48;;;14.18;;
19691;SDS011;42748;50.016;19.890;2024-03-22T10:30:56;25.20;;;13.32;;
19691;SDS011;42748;50.016;19.890;2024-03-22T10:33:24;31.73;;;15.10;;
19691;SDS011;42748;50.016;19.890;2024-03-22T10:35:52;29.30;;;15.32;;
19691;SDS011;42748;50.016;19.890;2024-03-22T10:38:19;31.55;;;15.73;;
19691;SDS011;42748;50.016;19.890;2024-03-22T10:40:47;29.80;;;15.77;;
19691;SDS011;42748;50.016;19.890;2024-03-22T10:43:14;30.05;;;15.43;;
19691;SDS011;42748;50.016;19.890;2024-03-22T10:45:41;31.13;;;15.82;;
19691;SDS011;42748;50.016;19.890;2024-03-22T10:48:09;33.92;;;17.42;;
19691;SDS011;42748;50.016;19.890;2024-03-22T10:50:39;32.40;;;17.77;;
19691;SDS011;42748;50.016;19.890;2024-03-22T10:53:09;35.97;;;18.30;;
19691;SDS011;42748;50.016;19.890;2024-03-22T10:55:37;34.35;;;19.02;;
19691;SDS011;42748;50.016;19.890;2024-03-22T10:58:05;34.65;;;19.15;;
19691;SDS011;42748;50.016;19.890;2024-03-22T11:00:32;32.92;;;18.77;;
19691;SDS011;42748;50.016;19.890;2024-03-22T11:02:59;34.38;;;19.02;;
19691;SDS011;42748;50.016;19.890;2024-03-22T11:05:27;31.23;;;18.40;;
19691;SDS011;42748;50.016;19.890;2024-03-22T11:08:04;35.60;;;19.48;;
19691;SDS011;42748;50.016;19.890;2024-03-22T11:10:33;38.17;;;18.70;;
19691;SDS011;42748;50.016;19.890;2024-03-22T11:13:07;33.92;;;18.98;;
19691;SDS011;42748;50.016;19.890;2024-03-22T11:15:35;32.33;;;19.52;;
19691;SDS011;42748;50.016;19.890;2024-03-22T11:18:01;32.78;;;19.73;;
19691;SDS011;42748;50.016;19.890;2024-03-22T11:20:28;34.05;;;20.38;;
19691;SDS011;42748;50.016;19.890;2024-03-22T11:22:56;36.88;;;20.67;;
19691;SDS011;42748;50.016;19.890;2024-03-22T11:25:23;34.58;;;20.50;;
19691;SDS011;42748;50.016;19.890;2024-03-22T11:27:49;32.67;;;19.55;;
19691;SDS011;42748;50.016;19.890;2024-03-22T11:34:35;35.30;;;20.98;;
19691;SDS011;42748;50.016;19.890;2024-03-22T11:37:02;33.47;;;20.50;;
19691;SDS011;42748;50.016;19.890;2024-03-22T11:39:28;36.70;;;19.85;;
19691;SDS011;42748;50.016;19.890;2024-03-22T11:41:55;31.10;;;18.63;;
19691;SDS011;42748;50.016;19.890;2024-03-22T11:44:22;32.53;;;19.50;;
19691;SDS011;42748;50.016;19.890;2024-03-22T11:46:52;33.10;;;20.15;;
19691;SDS011;42748;50.016;19.890;2024-03-22T11:49:18;34.75;;;19.55;;
19691;SDS011;42748;50.016;19.890;2024-03-22T11:51:45;37.65;;;20.77;;
19691;SDS011;42748;50.016;19.890;2024-03-22T11:54:11;33.05;;;20.67;;
19691;SDS011;42748;50.016;19.890;2024-03-22T11:56:39;35.63;;;20.02;;
19691;SDS011;42748;50.016;19.890;2024-03-22T11:59:06;31.63;;;19.80;;
19691;SDS011;42748;50.016;19.890;2024-03-22T12:01:33;36.40;;;21.02;;
19691;SDS011;42748;50.016;19.890;2024-03-22T12:03:59;36.35;;;20.05;;
19691;SDS011;42748;50.016;19.890;2024-03-22T12:06:26;32.67;;;19.58;;
19691;SDS011;42748;50.016;19.890;2024-03-22T12:08:52;30.77;;;18.52;;
19691;SDS011;42748;50.016;19.890;2024-03-22T12:11:19;33.90;;;19.58;;
19691;SDS011;42748;50.016;19.890;2024-03-22T12:13:46;31.70;;;18.92;;
19691;SDS011;42748;50.016;19.890;2024-03-22T12:16:13;36.20;;;18.88;;
19691;SDS011;42748;50.016;19.890;2024-03-22T12:18:40;33.47;;;17.63;;
19691;SDS011;42748;50.016;19.890;2024-03-22T12:21:06;30.73;;;18.27;;
19691;SDS011;42748;50.016;19.890;2024-03-22T12:23:33;30.35;;;17.80;;
19691;SDS011;42748;50.016;19.890;2024-03-22T12:26:00;31.48;;;18.17;;
19691;SDS011;42748;50.016;19.890;2024-03-22T12:32:45;35.97;;;17.52;;
19691;SDS011;42748;50.016;19.890;2024-03-22T12:35:12;33.97;;;18.40;;
19691;SDS011;42748;50.016;19.890;2024-03-22T12:37:38;34.58;;;18.63;;
19691;SDS011;42748;50.016;19.890;2024-03-22T12:40:05;35.67;;;19.02;;
19691;SDS011;42748;50.016;19.890;2024-03-22T12:42:33;33.45;;;19.17;;
19691;SDS011;42748;50.016;19.890;2024-03-22T12:49:18;34.15;;;19.05;;
19691;SDS011;42748;50.016;19.890;2024-03-22T12:51:45;33.03;;;19.33;;
19691;SDS011;42748;50.016;19.890;2024-03-22T12:54:11;35.38;;;19.58;;
19691;SDS011;42748;50.016;19.890;2024-03-22T12:56:40;36.10;;;19.55;;
19691;SDS011;42748;50.016;19.890;2024-03-22T12:59:06;39.72;;;19.95;;
19691;SDS011;42748;50.016;19.890;2024-03-22T13:01:33;37.15;;;19.70;;
19691;SDS011;42748;50.016;19.890;2024-03-22T13:04:01;38.72;;;20.00;;
19691;SDS011;42748;50.016;19.890;2024-03-22T13:06:28;36.55;;;20.33;;
19691;SDS011;42748;50.016;19.890;2024-03-22T13:08:54;34.08;;;19.88;;
19691;SDS011;42748;50.016;19.890;2024-03-22T13:11:21;36.88;;;20.77;;
19691;SDS011;42748;50.016;19.890;2024-03-22T13:13:47;32.63;;;19.80;;
19691;SDS011;42748;50.016;19.890;2024-03-22T13:16:14;42.30;;;21.35;;
19691;SDS011;42748;50.016;19.890;2024-03-22T13:18:41;33.92;;;20.25;;
19691;SDS011;42748;50.016;19.890;2024-03-22T13:21:08;35.63;;;20.20;;
19691;SDS011;42748;50.016;19.890;2024-03-22T13:23:35;33.88;;;20.02;;
19691;SDS011;42748;50.016;19.890;2024-03-22T13:26:04;35.42;;;20.38;;
19691;SDS011;42748;50.016;19.890;2024-03-22T13:28:32;37.75;;;20.90;;
19691;SDS011;42748;50.016;19.890;2024-03-22T13:35:17;35.53;;;21.00;;
19691;SDS011;42748;50.016;19.890;2024-03-22T13:37:43;36.13;;;20.90;;
19691;SDS011;42748;50.016;19.890;2024-03-22T13:40:10;35.97;;;20.63;;
19691;SDS011;42748;50.016;19.890;2024-03-22T13:42:37;35.30;;;20.52;;
19691;SDS011;42748;50.016;19.890;2024-03-22T13:45:03;34.85;;;20.60;;
19691;SDS011;42748;50.016;19.890;2024-03-22T13:47:30;33.67;;;20.13;;
19691;SDS011;42748;50.016;19.890;2024-03-22T13:49:56;34.88;;;20.45;;
19691;SDS011;42748;50.016;19.890;2024-03-22T13:52:23;32.88;;;20.02;;
19691;SDS011;42748;50.016;19.890;2024-03-22T13:54:49;33.42;;;21.05;;
19691;SDS011;42748;50.016;19.890;2024-03-22T13:57:16;33.15;;;19.98;;
19691;SDS011;42748;50.016;19.890;2024-03-22T13:59:43;34.30;;;20.05;;
19691;SDS011;42748;50.016;19.890;2024-03-22T14:02:09;34.85;;;19.08;;
19691;SDS011;42748;50.016;19.890;2024-03-22T14:04:36;33.53;;;20.33;;
19691;SDS011;42748;50.016;19.890;2024-03-22T14:07:02;34.17;;;20.05;;
19691;SDS011;42748;50.016;19.890;2024-03-22T14:09:33;34.95;;;19.35;;
19691;SDS011;42748;50.016;19.890;2024-03-22T14:12:00;34.83;;;19.35;;
19691;SDS011;42748;50.016;19.890;2024-03-22T14:14:26;31.17;;;19.33;;
19691;SDS011;42748;50.016;19.890;2024-03-22T14:16:54;34.67;;;18.33;;
19691;SDS011;42748;50.016;19.890;2024-03-22T14:19:21;29.80;;;18.05;;
19691;SDS011;42748;50.016;19.890;2024-03-22T14:21:47;28.85;;;18.10;;
19691;SDS011;42748;50.016;19.890;2024-03-22T14:24:16;30.30;;;18.23;;
19691;SDS011;42748;50.016;19.890;2024-03-22T14:26:43;29.77;;;18.05;;
19691;SDS011;42748;50.016;19.890;2024-03-22T14:29:09;30.92;;;18.33;;
19691;SDS011;42748;50.016;19.890;2024-03-22T14:35:54;33.55;;;18.27;;
19691;SDS011;42748;50.016;19.890;2024-03-22T14:38:21;32.08;;;18.67;;
19691;SDS011;42748;50.016;19.890;2024-03-22T14:40:48;31.25;;;18.80;;
19691;SDS011;42748;50.016;19.890;2024-03-22T14:43:16;32.63;;;19.15;;
19691;SDS011;42748;50.016;19.890;2024-03-22T14:45:43;31.27;;;17.65;;
19691;SDS011;42748;50.016;19.890;2024-03-22T14:48:09;31.95;;;18.73;;
19691;SDS011;42748;50.016;19.890;2024-03-22T14:50:36;29.05;;;18.05;;
19691;SDS011;42748;50.016;19.890;2024-03-22T14:53:05;30.45;;;17.63;;
19691;SDS011;42748;50.016;19.890;2024-03-22T14:55:32;29.98;;;17.58;;
19691;SDS011;42748;50.016;19.890;2024-03-22T14:57:58;30.33;;;17.27;;
19691;SDS011;42748;50.016;19.890;2024-03-22T15:00:25;31.45;;;17.33;;
19691;SDS011;42748;50.016;19.890;2024-03-22T15:02:52;29.90;;;17.38;;
19691;SDS011;42748;50.016;19.890;2024-03-22T15:05:18;33.10;;;17.70;;
19691;SDS011;42748;50.016;19.890;2024-03-22T15:07:45;33.83;;;17.60;;